Flight Track Log - Related Links

Times and Time Zones

All times are in EDT time to prevent confusion due to time zone crossing. See the EJA951 flight status page for this flight to view local times or setup timezone preferences in your user account.

Time Position Orientation Groundspeed Altitude Reporting Facility
EDT Latitude Longitude Course Direction KTS MPH feet Rate Location/Type
Fri 02:10:13 PM 32.0919 -110.9103 135° Southeast 201 231 3,600  Level Albuquerque Center
Fri 02:11:14 PM 32.0494 -110.8564 133° Southeast 228 262 6,800 3,205 Climbing Albuquerque Center
Fri 02:11:26 PM 32.0436 -110.8453 122° Southeast 234 269 7,500 3,600 Climbing Albuquerque Center
Fri 02:12:14 PM 32.0114 -110.7836 122° Southeast 257 296 10,400 3,048 Climbing Albuquerque Center
Fri 02:12:29 PM 32.0139 -110.7764 68° East 250 288 10,700 2,605 Climbing Albuquerque Center
Fri 02:13:30 PM 32.0303 -110.6822 78° East 291 335 13,700 1,935 Climbing Albuquerque Center
Fri 02:14:33 PM 32.0506 -110.5728 78° East 320 368 14,700 720 Climbing Albuquerque Center
Fri 02:15:35 PM 32.0717 -110.4517 78° East 362 417 15,200 528 Climbing Albuquerque Center
Fri 02:16:38 PM 32.1000 -110.2950 78° East 396 456 15,800 871 Climbing Albuquerque Center
Fri 02:17:39 PM 32.1744 -110.1911 50° Northeast 413 475 17,000 1,377 Climbing Albuquerque Center
Fri 02:18:40 PM 32.2503 -110.0892 49° Northeast 414 476 18,600 1,488 Climbing Albuquerque Center
Fri 02:19:44 PM 32.3239 -109.9900 49° Northeast 408 470 20,100 1,392 Climbing Albuquerque Center
Fri 02:20:45 PM 32.3967 -109.8883 50° Northeast 406 467 21,500 1,426 Climbing Albuquerque Center
Fri 02:21:46 PM 32.4719 -109.7522 57° Northeast 419 482 23,000 1,403 Climbing Albuquerque Center
Fri 02:22:49 PM 32.5206 -109.6281 65° Northeast 419 482 24,400 1,286 Climbing Albuquerque Center
Fri 02:23:52 PM 32.5733 -109.5019 64° Northeast 424 488 25,700 1,258 Climbing Albuquerque Center
Fri 02:24:53 PM 32.6247 -109.3739 64° Northeast 429 494 27,000 1,306 Climbing Albuquerque Center
Fri 02:25:56 PM 32.6872 -109.2494 59° Northeast 446 513 28,400 1,200 Climbing Albuquerque Center
Fri 02:26:58 PM 32.7692 -109.1394 48° Northeast 448 516 29,500 1,143 Climbing Albuquerque Center
Fri 02:28:02 PM 32.8561 -109.0258 48° Northeast 453 521 30,800 1,161 Climbing Albuquerque Center
Fri 02:29:02 PM 32.9614 -108.8875 48° Northeast 465 535 31,900 836 Climbing Albuquerque Center
Fri 02:30:04 PM 33.0508 -108.7667 49° Northeast 478 550 32,500 768 Climbing Albuquerque Center
Fri 02:31:07 PM 33.1528 -108.6333 48° Northeast 493 567 33,500 1,016 Climbing Albuquerque Center
Fri 02:32:08 PM 33.2447 -108.5108 48° Northeast 497 572 34,600 1,033 Climbing Albuquerque Center
Fri 02:33:09 PM 33.3386 -108.3844 48° Northeast 504 580 35,600 1,171 Climbing Albuquerque Center
Fri 02:34:11 PM 33.4317 -108.2606 48° Northeast 504 580 37,000 1,143 Climbing Albuquerque Center
Fri 02:35:15 PM 33.5361 -108.1194 48° Northeast 500 575 38,000 1,210 Climbing Albuquerque Center
Fri 02:36:15 PM 33.6286 -107.9944 48° Northeast 500 575 39,500 1,366 Climbing Albuquerque Center
Fri 02:37:18 PM 33.7186 -107.8722 48° Northeast 493 567 40,800 720 Climbing Albuquerque Center
Fri 02:38:20 PM 33.8153 -107.7419 48° Northeast 490 564 41,000 96 Climbing Albuquerque Center
Fri 02:39:23 PM 33.9094 -107.6128 49° Northeast 504 580 41,000  Level Albuquerque Center
Fri 02:40:24 PM 34.0072 -107.4806 48° Northeast 521 600 41,000  Level Albuquerque Center
Fri 02:41:25 PM 34.1053 -107.3433 49° Northeast 533 613 41,000  Level Albuquerque Center
Fri 02:42:26 PM 34.2053 -107.2058 49° Northeast 542 624 41,000  Level Albuquerque Center
Fri 02:43:30 PM 34.3217 -107.0450 49° Northeast 544 626 41,000  Level Albuquerque Center
Fri 02:44:32 PM 34.4297 -106.8961 49° Northeast 548 631 41,000  Level Albuquerque Center
Fri 02:45:32 PM 34.5278 -106.7569 49° Northeast 546 628 41,000  Level Albuquerque Center
Fri 02:46:36 PM 34.6228 -106.6264 48° Northeast 548 631 41,000  Level Albuquerque Center
Fri 02:47:36 PM 34.7200 -106.4844 50° Northeast 547 629 41,000  Level Albuquerque Center
Fri 02:48:40 PM 34.8386 -106.3158 49° Northeast 548 631 41,000  Level Albuquerque Center
Fri 02:49:41 PM 34.9378 -106.1739 50° Northeast 550 633 41,000  Level Albuquerque Center
Fri 02:50:45 PM 35.0369 -106.0331 49° Northeast 550 633 41,000  Level Albuquerque Center
Fri 02:51:47 PM 35.1347 -105.8939 49° Northeast 547 629 41,000  Level Albuquerque Center
Fri 02:52:47 PM 35.2314 -105.7536 50° Northeast 544 626 41,000  Level Albuquerque Center
Fri 02:53:49 PM 35.3289 -105.6125 50° Northeast 547 629 41,000  Level Albuquerque Center
Fri 02:54:52 PM 35.4447 -105.4447 50° Northeast 546 628 41,000  Level Albuquerque Center
Fri 02:55:53 PM 35.5450 -105.2994 50° Northeast 548 631 41,000  Level Albuquerque Center
Fri 02:56:57 PM 35.6431 -105.1539 50° Northeast 547 629 41,000  Level Albuquerque Center
Fri 02:57:57 PM 35.7114 -104.9858 63° Northeast 547 629 41,000  Level Albuquerque Center
Fri 02:58:58 PM 35.7708 -104.8161 67° East 538 619 41,000  Level Albuquerque Center
Fri 03:00:01 PM 35.8308 -104.6433 67° East 538 619 41,000  Level Albuquerque Center
Fri 03:01:02 PM 35.8922 -104.4697 66° East 543 625 41,000  Level Albuquerque Center
Fri 03:02:06 PM 35.9625 -104.2672 67° East 543 625 41,000  Level Albuquerque Center
Fri 03:03:06 PM 36.0225 -104.0953 67° East 540 621 41,000  Level Albuquerque Center
Fri 03:04:10 PM 36.0811 -103.9231 67° East 538 619 41,000  Level Albuquerque Center
Fri 03:05:11 PM 36.1292 -103.7472 71° East 536 617 41,000  Level Albuquerque Center
Fri 03:06:15 PM 36.1764 -103.5714 72° East 534 615 41,000  Level Albuquerque Center
Fri 03:07:16 PM 36.2239 -103.3961 71° East 533 613 41,000  Level Albuquerque Center
Fri 03:08:17 PM 36.2708 -103.2183 72° East 535 616 41,000  Level Albuquerque Center
Fri 03:09:21 PM 36.3172 -103.0406 72° East 537 618 41,000  Level Albuquerque Center
Fri 03:10:21 PM 36.3631 -102.8425 74° East 541 623 41,000  Level Albuquerque Center
Fri 03:11:22 PM 36.3833 -102.6575 82° East 543 625 41,000  Level Albuquerque Center
Fri 03:12:26 PM 36.4058 -102.4750 81° East 539 620 41,000  Level Albuquerque Center
Fri 03:13:27 PM 36.4350 -102.2917 79° East 539 620 41,000  Level Albuquerque Center
Fri 03:14:30 PM 36.4633 -102.1100 79° East 537 618 41,000  Level Albuquerque Center
Fri 03:15:30 PM 36.4969 -101.8889 79° East 541 623 41,000  Level Albuquerque Center
Fri 03:16:34 PM 36.5236 -101.7056 80° East 539 620 41,000  Level Albuquerque Center
Fri 03:17:35 PM 36.5514 -101.5172 80° East 539 620 41,000  Level Albuquerque Center
Fri 03:18:38 PM 36.5900 -101.3128 77° East 540 621 41,000  Level Kansas City Center
Fri 03:19:40 PM 36.6394 -101.1464 70° East 539 620 41,000  Level Kansas City Center
Fri 03:20:42 PM 36.6958 -100.9531 70° East 536 617 41,000  Level Kansas City Center
Fri 03:21:44 PM 36.7442 -100.7856 70° East 537 618 41,000  Level Kansas City Center
Fri 03:22:46 PM 36.7919 -100.6167 70° East 540 621 41,000  Level Kansas City Center
Fri 03:23:48 PM 36.8469 -100.4200 71° East 541 623 41,000  Level Kansas City Center
Fri 03:24:50 PM 36.9025 -100.2244 70° East 540 621 41,000  Level Kansas City Center
Fri 03:25:52 PM 36.9469 -100.0656 71° East 538 619 41,000  Level Kansas City Center
Fri 03:26:54 PM 36.9953 -99.8897 71° East 535 616 41,000  Level Kansas City Center
Fri 03:27:57 PM 37.0494 -99.6939 71° East 535 616 41,000  Level Kansas City Center
Fri 03:28:59 PM 37.0939 -99.5272 71° East 531 611 41,000  Level Kansas City Center
Fri 03:30:01 PM 37.1492 -99.3244 71° East 532 612 41,000  Level Kansas City Center
Fri 03:31:03 PM 37.1958 -99.1497 71° East 530 610 41,000  Level Kansas City Center
Fri 03:32:05 PM 37.2425 -98.9725 72° East 531 611 41,000  Level Kansas City Center
Fri 03:33:07 PM 37.2894 -98.7983 71° East 531 611 41,000  Level Kansas City Center
Fri 03:34:09 PM 37.3347 -98.6256 72° East 526 605 41,000  Level Kansas City Center
Fri 03:35:11 PM 37.3792 -98.4519 72° East 524 603 41,000  Level Kansas City Center
Fri 03:36:13 PM 37.4339 -98.2444 72° East 524 603 41,000  Level Kansas City Center
Fri 03:37:15 PM 37.4775 -98.0728 72° East 521 600 41,000  Level Kansas City Center
Fri 03:38:17 PM 37.5208 -97.9014 72° East 520 598 41,000  Level Kansas City Center
Fri 03:39:19 PM 37.5650 -97.7294 72° East 522 601 41,000  Level Kansas City Center
Fri 03:40:21 PM 37.6089 -97.5572 72° East 521 600 41,000  Level Kansas City Center
Fri 03:41:23 PM 37.6608 -97.3522 72° East 516 594 41,000  Level Kansas City Center
Fri 03:42:25 PM 37.7033 -97.1794 73° East 518 596 41,000  Level Kansas City Center
Fri 03:43:27 PM 37.7472 -97.0069 72° East 520 598 41,000  Level Kansas City Center
Fri 03:44:29 PM 37.7900 -96.8308 73° East 525 604 41,000  Level Kansas City Center
Fri 03:45:32 PM 37.8328 -96.6536 73° East 527 606 41,000  Level Kansas City Center
Fri 03:46:34 PM 37.8756 -96.4767 73° East 527 606 41,000  Level Kansas City Center
Fri 03:47:36 PM 37.9264 -96.2650 73° East 525 604 41,000  Level Kansas City Center
Fri 03:48:38 PM 37.9708 -96.0789 73° East 523 602 41,000  Level Kansas City Center
Fri 03:49:40 PM 38.0111 -95.9100 73° East 523 602 41,000  Level Kansas City Center
Fri 03:50:42 PM 38.0569 -95.7114 74° East 527 606 41,000  Level Kansas City Center
Fri 03:51:44 PM 38.0972 -95.5394 73° East 531 611 41,000  Level Kansas City Center
Fri 03:52:46 PM 38.1431 -95.3397 74° East 530 610 41,000  Level Kansas City Center
Fri 03:53:48 PM 38.1819 -95.1681 74° East 531 611 41,000  Level Kansas City Center
Fri 03:54:50 PM 38.2272 -94.9681 74° East 529 609 41,000  Level Kansas City Center
Fri 03:55:52 PM 38.2661 -94.7983 74° East 528 608 41,000  Level Kansas City Center
Fri 03:56:54 PM 38.3103 -94.5992 74° East 525 604 41,000  Level Kansas City Center
Fri 03:57:56 PM 38.3478 -94.4289 74° East 525 604 41,000  Level Kansas City Center
Fri 03:58:58 PM 38.3917 -94.2289 74° East 526 605 41,000  Level Kansas City Center
Fri 04:00:00 PM 38.4275 -94.0631 75° East 525 604 41,000  Level Kansas City Center
Fri 04:01:03 PM 38.4653 -93.8836 75° East 523 602 41,000  Level Kansas City Center
Fri 04:02:05 PM 38.5056 -93.7017 74° East 527 606 41,000  Level Kansas City Center
Fri 04:03:07 PM 38.5522 -93.4831 75° East 529 609 41,000  Level Kansas City Center
Fri 04:04:09 PM 38.5903 -93.3014 75° East 529 609 41,000  Level Kansas City Center
Fri 04:05:11 PM 38.6281 -93.1194 75° East 527 606 41,000  Level Kansas City Center
Fri 04:06:13 PM 38.6669 -92.9364 75° East 529 609 41,000  Level Kansas City Center
Fri 04:07:15 PM 38.7036 -92.7558 75° East 525 604 41,000  Level Kansas City Center
Fri 04:08:17 PM 38.7411 -92.5739 75° East 524 603 41,000  Level Kansas City Center
Fri 04:09:19 PM 38.7769 -92.3911 76° East 525 604 41,000  Level Kansas City Center
Fri 04:10:21 PM 38.8133 -92.2106 75° East 523 602 41,000  Level Kansas City Center
Fri 04:11:23 PM 38.8564 -91.9936 76° East 522 601 41,000  Level Kansas City Center
Fri 04:12:25 PM 38.8908 -91.8103 76° East 522 601 41,000  Level Kansas City Center
Fri 04:13:27 PM 38.9247 -91.6344 76° East 523 602 41,000  Level Kansas City Center
Fri 04:14:29 PM 38.9597 -91.4531 76° East 523 602 41,000  Level Kansas City Center
Fri 04:15:31 PM 38.9950 -91.2728 76° East 522 601 41,000  Level Kansas City Center
Fri 04:16:33 PM 39.0292 -91.0917 76° East 521 600 41,000  Level Kansas City Center
Fri 04:17:35 PM 39.0639 -90.9106 76° East 522 601 41,000  Level Kansas City Center
Fri 04:18:37 PM 39.1050 -90.6928 76° East 521 600 41,000  Level Kansas City Center
Fri 04:19:39 PM 39.1400 -90.5089 76° East 523 602 41,000  Level Kansas City Center
Fri 04:20:41 PM 39.1722 -90.3253 77° East 523 602 41,000  Level Kansas City Center
Fri 04:21:44 PM 39.2056 -90.1411 77° East 524 603 41,000  Level Kansas City Center
Fri 04:22:45 PM 39.2375 -89.9589 77° East 521 600 41,000  Level Kansas City Center
Fri 04:23:47 PM 39.2697 -89.7767 77° East 520 598 41,000  Level Kansas City Center
Fri 04:24:50 PM 39.3011 -89.5953 77° East 519 597 41,000  Level Kansas City Center
Fri 04:25:52 PM 39.3336 -89.4128 77° East 520 598 41,000  Level Kansas City Center
Fri 04:26:54 PM 39.3706 -89.1939 78° East 521 600 41,000  Level Kansas City Center
Fri 04:27:56 PM 39.4014 -89.0125 78° East 519 597 41,000  Level Kansas City Center
Fri 04:28:58 PM 39.4322 -88.8300 78° East 517 595 41,000  Level Kansas City Center
Fri 04:30:00 PM 39.4614 -88.6503 78° East 515 593 41,000  Level Kansas City Center
Fri 04:31:02 PM 39.4906 -88.4717 78° East 513 590 41,000  Level Kansas City Center
Fri 04:32:04 PM 39.5256 -88.2533 78° East 514 592 41,000  Level Kansas City Center
Fri 04:33:06 PM 39.5558 -88.0692 78° East 515 593 41,000  Level Kansas City Center
Fri 04:33:36 PM 39.5689 -87.9803 79° East 518 596 41,000  Level Indianapolis Center
Fri 04:34:38 PM 39.5978 -87.7989 78° East 517 595 41,000  Level Indianapolis Center
Fri 04:35:40 PM 39.6267 -87.6147 78° East 521 600 41,000  Level Indianapolis Center
Fri 04:36:42 PM 39.6553 -87.4303 79° East 523 602 41,000  Level Indianapolis Center
Fri 04:37:44 PM 39.7058 -87.2158 73° East 517 595 41,000  Level Indianapolis Center
Fri 04:38:47 PM 39.7547 -87.0414 70° East 515 593 41,000  Level Indianapolis Center
Fri 04:39:11 PM 39.7744 -86.9719 70° East 514 592 41,000  Level Indianapolis Center
Fri 04:40:13 PM 39.8228 -86.7969 70° East 515 593 41,000  Level Indianapolis Center
Fri 04:41:15 PM 39.8706 -86.6236 70° East 507 583 41,000  Level Indianapolis Center
Fri 04:42:17 PM 39.9183 -86.4486 70° East 507 583 41,000  Level Indianapolis Center
Fri 04:43:20 PM 39.9667 -86.2714 70° East 510 587 41,000  Level Indianapolis Center
Fri 04:44:21 PM 40.0133 -86.0947 71° East 511 588 41,000  Level Indianapolis Center
Fri 04:45:23 PM 40.0608 -85.9169 71° East 514 592 41,000  Level Indianapolis Center
Fri 04:46:25 PM 40.1161 -85.7047 71° East 516 594 41,000  Level Indianapolis Center
Fri 04:47:27 PM 40.1636 -85.5294 70° East 514 592 41,000  Level Indianapolis Center
Fri 04:48:29 PM 40.2086 -85.3508 72° East 518 596 41,000  Level Indianapolis Center
Fri 04:49:31 PM 40.2550 -85.1742 71° East 516 594 41,000  Level Indianapolis Center
Fri 04:50:34 PM 40.3008 -84.9958 71° East 518 596 41,000  Level Indianapolis Center
Fri 04:51:36 PM 40.3561 -84.7783 71° East 525 604 41,000  Level Indianapolis Center
Fri 04:52:38 PM 40.4019 -84.5994 71° East 520 598 41,000  Level Indianapolis Center
Fri 04:53:40 PM 40.4469 -84.4200 72° East 517 595 41,000  Level Indianapolis Center
Fri 04:54:42 PM 40.4908 -84.2419 72° East 513 590 41,000  Level Indianapolis Center
Fri 04:55:44 PM 40.5344 -84.0600 72° East 520 598 41,000  Level Indianapolis Center
Fri 04:56:46 PM 40.5792 -83.8792 72° East 518 596 41,000  Level Indianapolis Center
Fri 04:57:48 PM 40.6225 -83.6961 73° East 522 601 41,000  Level Indianapolis Center
Fri 04:58:50 PM 40.6758 -83.4769 72° East 522 601 41,000  Level Indianapolis Center
Fri 04:59:52 PM 40.7200 -83.2911 73° East 529 609 41,000  Level Indianapolis Center
Fri 05:00:54 PM 40.7617 -83.1172 72° East 528 608 41,000  Level Indianapolis Center
Fri 05:01:56 PM 40.8050 -82.9317 73° East 528 608 41,000  Level Indianapolis Center
Fri 05:02:58 PM 40.8556 -82.7161 73° East 524 603 41,000  Level Indianapolis Center
Fri 05:04:00 PM 40.8972 -82.5317 73° East 522 601 41,000  Level Indianapolis Center
Fri 05:05:02 PM 40.9411 -82.3450 73° East 527 606 41,000  Level Indianapolis Center
Fri 05:06:04 PM 40.9833 -82.1572 73° East 530 610 41,000  Level Indianapolis Center
Fri 05:07:06 PM 41.0256 -81.9686 73° East 533 613 41,000  Level Indianapolis Center
Fri 05:08:08 PM 41.0678 -81.7806 73° East 533 613 41,000  Level Indianapolis Center
Fri 05:09:13 PM 41.1158 -81.5533 74° East 530 610 41,000  Level Cleveland Center
Fri 05:10:13 PM 41.1567 -81.3664 74° East 530 610 41,000  Level Cleveland Center
Fri 05:11:13 PM 41.1997 -81.1764 73° East 530 610 41,000  Level Cleveland Center
Fri 05:12:13 PM 41.2400 -80.9864 74° East 530 610 41,000  Level Cleveland Center
Fri 05:13:13 PM 41.2803 -80.7986 74° East 530 610 41,000  Level Cleveland Center
Fri 05:14:13 PM 41.3222 -80.6053 74° East 535 616 41,000  Level Cleveland Center
Fri 05:15:13 PM 41.3617 -80.4200 74° East 526 605 41,000  Level Cleveland Center
Fri 05:16:13 PM 41.3989 -80.2483 74° East 526 605 41,000  Level Cleveland Center
Fri 05:17:13 PM 41.4378 -80.0597 75° East 526 605 41,000  Level Cleveland Center
Fri 05:18:13 PM 41.4742 -79.8736 75° East 526 605 41,000  Level Cleveland Center
Fri 05:19:13 PM 41.5125 -79.6847 75° East 526 605 41,000  Level Cleveland Center
Fri 05:20:13 PM 41.5506 -79.4928 75° East 532 612 41,000  Level Cleveland Center
Fri 05:21:13 PM 41.5881 -79.2978 76° East 532 612 41,000  Level Cleveland Center
Fri 05:22:13 PM 41.6275 -79.1053 75° East 532 612 41,000  Level Cleveland Center
Fri 05:23:13 PM 41.6625 -78.9322 75° East 532 612 41,000  Level Cleveland Center
Fri 05:24:13 PM 41.7011 -78.7197 76° East 532 612 41,000  Level Cleveland Center
Fri 05:25:13 PM 41.7394 -78.5239 75° East 532 612 41,000  Level Cleveland Center
Fri 05:26:13 PM 41.7733 -78.3306 77° East 532 612 41,000  Level Cleveland Center
Fri 05:27:13 PM 41.8111 -78.1400 75° East 532 612 41,000  Level Cleveland Center
Fri 05:28:13 PM 41.8464 -77.9433 76° East 532 612 41,000  Level Cleveland Center
Fri 05:29:39 PM 41.8147 -77.6672 99° East 528 608 41,000  Level New York Center
Fri 05:30:39 PM 41.7653 -77.4786 109° East 520 598 41,000  Level New York Center
Fri 05:31:39 PM 41.7153 -77.2903 110° East 532 612 41,000  Level New York Center
Fri 05:32:39 PM 41.6631 -77.0989 110° East 538 619 41,000  Level New York Center
Fri 05:33:39 PM 41.6125 -76.9111 110° East 538 619 41,000  Level New York Center
Fri 05:34:39 PM 41.5617 -76.7261 110° East 538 619 41,000  Level New York Center
Fri 05:35:39 PM 41.5069 -76.5244 110° East 538 619 41,000  Level New York Center
Fri 05:36:39 PM 41.4644 -76.3714 110° East 533 613 41,000 -300 Level New York Center
Fri 05:37:39 PM 41.4075 -76.1619 110° East 548 631 40,400 -1,950 Descending New York Center
Fri 05:38:39 PM 41.3531 -75.9781 111° Southeast 548 631 37,100 -8,700 Descending New York Center
Fri 05:39:39 PM 41.3008 -75.7917 110° East 535 616 23,000 -3,400 Descending New York Center
Fri 05:40:39 PM 41.2458 -75.6108 112° Southeast 529 609 30,300 1,400 Climbing New York Center
Fri 05:41:39 PM 41.1919 -75.4500 114° Southeast 505 581 25,800 -3,650 Descending New York Center
Fri 05:42:39 PM 41.1358 -75.2836 114° Southeast 492 566 23,000 -1,400 Descending New York Center
Fri 05:43:39 PM 41.0778 -75.1117 114° Southeast 492 566 23,000  Level New York Center
Fri 05:44:39 PM 41.0139 -74.9153 113° Southeast 508 585 23,000  Level New York Center
Fri 05:45:39 PM 40.9808 -74.7236 103° East 526 605 23,000  Level New York Center
Fri 05:46:39 PM 40.9600 -74.5356 98° East 519 597 23,000 -450 Level New York Center
Fri 05:47:39 PM 40.9389 -74.3447 98° East 519 597 22,100 -1,450 Descending New York Center
Fri 05:48:39 PM 40.9242 -74.2067 98° East 503 579 20,100 -2,450 Descending New York Center
Fri 05:49:39 PM 40.8578 -74.0553 120° Southeast 406 467 17,200 -2,200 Descending New York Center
Fri 05:50:39 PM 40.7936 -73.9561 131° Southeast 373 429 15,700 -1,950 Descending New York Center
Fri 05:51:39 PM 40.7317 -73.8656 132° Southeast 337 388 13,300 -2,150 Descending New York Center
Fri 05:52:39 PM 40.6733 -73.7808 132° Southeast 324 373 11,400 -2,100 Descending New York Center
Fri 05:53:39 PM 40.6300 -73.6833 120° Southeast 312 359 9,100 -2,100 Descending New York Center
Fri 05:54:39 PM 40.6072 -73.5894 108° East 302 348 7,200 -2,250 Descending New York Center
Fri 05:55:39 PM 40.5636 -73.5003 123° Southeast 273 314 4,600 -2,300 Descending New York Center
Fri 05:56:39 PM 40.6025 -73.4389 50° Northeast 194 223 2,600 -1,300 Descending New York Center
Fri 05:57:39 PM 40.6428 -73.3994 37° Northeast 179 206 2,000 -700 Descending New York Center
Fri 05:58:39 PM 40.6631 -73.4250 316° Northwest 101 116 1,200 -700 Descending New York Center
Fri 05:59:39 PM 40.6925 -73.4178 11° North 92 106 600 -500 Descending New York Center
Fri 06:00:39 PM 40.7239 -73.4164 North 103 119 200 9,200 Descending New York Center
Fri 06:01:39 PM 40.7550 -73.4175 358° North 103 119 19,000 18,800 Climbing New York Center
Fri 06:03:00 PM 40.7288 -73.4134 North  Level Estimated

Login

Don't have an account? Register now (free) for customized features, flight alerts, and more!